sensor_id;sensor_type;location;lat;lon;timestamp;temperature;humidity
45785;DHT22;31489;51.404;5.474;2023-10-13T00:00:27;21.00;85.80
45785;DHT22;31489;51.404;5.474;2023-10-13T00:02:58;21.00;85.90
45785;DHT22;31489;51.404;5.474;2023-10-13T00:05:29;21.00;86.00
45785;DHT22;31489;51.404;5.474;2023-10-13T00:08:02;21.00;86.00
45785;DHT22;31489;51.404;5.474;2023-10-13T00:10:32;21.00;86.00
45785;DHT22;31489;51.404;5.474;2023-10-13T00:12:59;21.00;85.90
45785;DHT22;31489;51.404;5.474;2023-10-13T00:15:41;21.00;85.90
45785;DHT22;31489;51.404;5.474;2023-10-13T00:18:12;21.00;85.80
45785;DHT22;31489;51.404;5.474;2023-10-13T00:20:42;21.00;85.80
45785;DHT22;31489;51.404;5.474;2023-10-13T00:23:14;21.00;85.70
45785;DHT22;31489;51.404;5.474;2023-10-13T00:25:41;21.00;85.80
45785;DHT22;31489;51.404;5.474;2023-10-13T00:28:16;21.00;85.70
45785;DHT22;31489;51.404;5.474;2023-10-13T00:30:49;21.00;85.70
45785;DHT22;31489;51.404;5.474;2023-10-13T00:33:17;21.00;85.60
45785;DHT22;31489;51.404;5.474;2023-10-13T00:35:45;21.00;85.70
45785;DHT22;31489;51.404;5.474;2023-10-13T00:38:13;21.00;85.60
45785;DHT22;31489;51.404;5.474;2023-10-13T00:40:39;21.00;85.70
45785;DHT22;31489;51.404;5.474;2023-10-13T00:43:05;21.00;85.70
45785;DHT22;31489;51.404;5.474;2023-10-13T00:45:56;21.00;85.70
45785;DHT22;31489;51.404;5.474;2023-10-13T00:48:23;21.00;85.70
45785;DHT22;31489;51.404;5.474;2023-10-13T00:51:00;21.00;85.70
45785;DHT22;31489;51.404;5.474;2023-10-13T00:53:31;21.00;85.70
45785;DHT22;31489;51.404;5.474;2023-10-13T00:56:01;20.90;85.70
45785;DHT22;31489;51.404;5.474;2023-10-13T00:58:35;20.90;85.80
45785;DHT22;31489;51.404;5.474;2023-10-13T01:01:04;20.90;85.80
45785;DHT22;31489;51.404;5.474;2023-10-13T01:03:54;20.90;85.90
45785;DHT22;31489;51.404;5.474;2023-10-13T01:06:27;20.90;86.00
45785;DHT22;31489;51.404;5.474;2023-10-13T01:11:37;20.80;86.20
45785;DHT22;31489;51.404;5.474;2023-10-13T01:14:03;20.80;86.10
45785;DHT22;31489;51.404;5.474;2023-10-13T01:16:29;20.80;86.10
45785;DHT22;31489;51.404;5.474;2023-10-13T01:18:55;20.90;86.20
45785;DHT22;31489;51.404;5.474;2023-10-13T01:21:25;20.80;86.20
45785;DHT22;31489;51.404;5.474;2023-10-13T01:23:53;20.80;86.30
45785;DHT22;31489;51.404;5.474;2023-10-13T01:26:19;20.80;86.30
45785;DHT22;31489;51.404;5.474;2023-10-13T01:28:57;20.80;86.30
45785;DHT22;31489;51.404;5.474;2023-10-13T01:31:23;20.80;86.50
45785;DHT22;31489;51.404;5.474;2023-10-13T01:33:56;20.80;86.40
45785;DHT22;31489;51.404;5.474;2023-10-13T01:36:26;20.80;86.40
45785;DHT22;31489;51.404;5.474;2023-10-13T01:38:52;20.80;86.50
45785;DHT22;31489;51.404;5.474;2023-10-13T01:41:19;20.80;86.50
45785;DHT22;31489;51.404;5.474;2023-10-13T01:43:45;20.80;86.50
45785;DHT22;31489;51.404;5.474;2023-10-13T01:46:11;20.80;86.50
45785;DHT22;31489;51.404;5.474;2023-10-13T01:48:40;20.90;86.60
45785;DHT22;31489;51.404;5.474;2023-10-13T01:51:06;20.80;86.60
45785;DHT22;31489;51.404;5.474;2023-10-13T01:53:39;20.90;86.70
45785;DHT22;31489;51.404;5.474;2023-10-13T01:56:05;20.80;86.70
45785;DHT22;31489;51.404;5.474;2023-10-13T01:58:39;20.80;86.70
45785;DHT22;31489;51.404;5.474;2023-10-13T02:01:09;20.90;86.70
45785;DHT22;31489;51.404;5.474;2023-10-13T02:03:36;20.90;86.80
45785;DHT22;31489;51.404;5.474;2023-10-13T02:06:07;20.90;86.80
45785;DHT22;31489;51.404;5.474;2023-10-13T02:08:35;20.90;86.90
45785;DHT22;31489;51.404;5.474;2023-10-13T02:11:05;20.90;86.90
45785;DHT22;31489;51.404;5.474;2023-10-13T02:13:32;20.80;87.00
45785;DHT22;31489;51.404;5.474;2023-10-13T02:15:58;20.90;87.10
45785;DHT22;31489;51.404;5.474;2023-10-13T02:18:28;20.90;87.10
45785;DHT22;31489;51.404;5.474;2023-10-13T02:21:08;20.90;87.20
45785;DHT22;31489;51.404;5.474;2023-10-13T02:23:41;20.90;87.30
45785;DHT22;31489;51.404;5.474;2023-10-13T02:26:09;20.80;87.30
45785;DHT22;31489;51.404;5.474;2023-10-13T02:28:40;20.90;87.40
45785;DHT22;31489;51.404;5.474;2023-10-13T02:31:07;20.90;87.40
45785;DHT22;31489;51.404;5.474;2023-10-13T02:33:33;20.90;87.50
45785;DHT22;31489;51.404;5.474;2023-10-13T02:36:01;20.90;88.10
45785;DHT22;31489;51.404;5.474;2023-10-13T02:38:33;20.90;87.50
45785;DHT22;31489;51.404;5.474;2023-10-13T02:41:17;20.90;87.60
45785;DHT22;31489;51.404;5.474;2023-10-13T02:43:53;20.90;87.80
45785;DHT22;31489;51.404;5.474;2023-10-13T02:46:20;20.90;87.50
45785;DHT22;31489;51.404;5.474;2023-10-13T02:48:47;20.90;87.60
45785;DHT22;31489;51.404;5.474;2023-10-13T02:51:19;20.90;87.60
45785;DHT22;31489;51.404;5.474;2023-10-13T02:53:56;20.90;87.70
45785;DHT22;31489;51.404;5.474;2023-10-13T02:56:28;20.90;87.70
45785;DHT22;31489;51.404;5.474;2023-10-13T02:58:55;20.90;87.70
45785;DHT22;31489;51.404;5.474;2023-10-13T03:01:30;20.90;87.80
45785;DHT22;31489;51.404;5.474;2023-10-13T03:04:00;20.90;87.90
45785;DHT22;31489;51.404;5.474;2023-10-13T03:06:26;20.90;87.90
45785;DHT22;31489;51.404;5.474;2023-10-13T03:08:59;20.90;87.90
45785;DHT22;31489;51.404;5.474;2023-10-13T03:11:47;20.90;87.90
45785;DHT22;31489;51.404;5.474;2023-10-13T03:14:17;20.90;88.00
45785;DHT22;31489;51.404;5.474;2023-10-13T03:17:00;20.90;87.90
45785;DHT22;31489;51.404;5.474;2023-10-13T03:19:42;21.00;87.90
45785;DHT22;31489;51.404;5.474;2023-10-13T03:22:12;21.00;88.00
45785;DHT22;31489;51.404;5.474;2023-10-13T03:24:41;21.00;87.90
45785;DHT22;31489;51.404;5.474;2023-10-13T03:27:11;21.00;88.00
45785;DHT22;31489;51.404;5.474;2023-10-13T03:29:41;21.00;88.00
45785;DHT22;31489;51.404;5.474;2023-10-13T03:32:14;21.00;87.90
45785;DHT22;31489;51.404;5.474;2023-10-13T03:34:47;21.00;88.10
45785;DHT22;31489;51.404;5.474;2023-10-13T03:37:35;21.00;88.30
45785;DHT22;31489;51.404;5.474;2023-10-13T03:40:04;21.00;88.10
45785;DHT22;31489;51.404;5.474;2023-10-13T03:42:55;21.00;88.10
45785;DHT22;31489;51.404;5.474;2023-10-13T03:45:41;21.00;88.30
45785;DHT22;31489;51.404;5.474;2023-10-13T03:48:12;21.00;88.30
45785;DHT22;31489;51.404;5.474;2023-10-13T03:51:00;21.00;88.30
45785;DHT22;31489;51.404;5.474;2023-10-13T03:53:32;21.00;88.10
45785;DHT22;31489;51.404;5.474;2023-10-13T03:56:02;21.00;88.20
45785;DHT22;31489;51.404;5.474;2023-10-13T03:58:40;21.00;88.30
45785;DHT22;31489;51.404;5.474;2023-10-13T04:01:13;21.00;88.20
45785;DHT22;31489;51.404;5.474;2023-10-13T04:03:42;21.10;88.40
45785;DHT22;31489;51.404;5.474;2023-10-13T04:06:25;21.00;88.30
45785;DHT22;31489;51.404;5.474;2023-10-13T04:09:14;21.10;88.40
45785;DHT22;31489;51.404;5.474;2023-10-13T04:11:58;21.00;88.50
45785;DHT22;31489;51.404;5.474;2023-10-13T04:14:30;21.00;88.40
45785;DHT22;31489;51.404;5.474;2023-10-13T04:17:15;21.00;88.40
45785;DHT22;31489;51.404;5.474;2023-10-13T04:19:44;21.00;88.50
45785;DHT22;31489;51.404;5.474;2023-10-13T04:22:28;21.00;88.60
45785;DHT22;31489;51.404;5.474;2023-10-13T04:25:24;21.00;88.70
45785;DHT22;31489;51.404;5.474;2023-10-13T04:28:10;21.00;89.00
45785;DHT22;31489;51.404;5.474;2023-10-13T04:30:47;21.00;89.10
45785;DHT22;31489;51.404;5.474;2023-10-13T04:33:15;21.00;89.00
45785;DHT22;31489;51.404;5.474;2023-10-13T04:36:07;21.00;88.80
45785;DHT22;31489;51.404;5.474;2023-10-13T04:39:01;21.00;89.40
45785;DHT22;31489;51.404;5.474;2023-10-13T04:41:34;20.90;89.10
45785;DHT22;31489;51.404;5.474;2023-10-13T04:44:16;20.90;89.50
45785;DHT22;31489;51.404;5.474;2023-10-13T04:47:01;20.90;89.60
45785;DHT22;31489;51.404;5.474;2023-10-13T04:49:32;20.90;89.60
45785;DHT22;31489;51.404;5.474;2023-10-13T04:52:15;20.90;90.00
45785;DHT22;31489;51.404;5.474;2023-10-13T04:55:01;20.90;89.90
45785;DHT22;31489;51.404;5.474;2023-10-13T04:57:42;20.90;90.10
45785;DHT22;31489;51.404;5.474;2023-10-13T05:00:11;20.90;89.60
45785;DHT22;31489;51.404;5.474;2023-10-13T05:02:39;20.90;90.00
45785;DHT22;31489;51.404;5.474;2023-10-13T05:05:12;20.90;90.00
45785;DHT22;31489;51.404;5.474;2023-10-13T05:07:47;20.80;90.20
45785;DHT22;31489;51.404;5.474;2023-10-13T05:10:32;20.90;90.20
45785;DHT22;31489;51.404;5.474;2023-10-13T05:13:16;20.80;90.20
45785;DHT22;31489;51.404;5.474;2023-10-13T05:16:00;20.80;90.20
45785;DHT22;31489;51.404;5.474;2023-10-13T05:18:44;20.80;90.20
45785;DHT22;31489;51.404;5.474;2023-10-13T05:21:29;20.80;90.30
45785;DHT22;31489;51.404;5.474;2023-10-13T05:24:13;20.90;90.40
45785;DHT22;31489;51.404;5.474;2023-10-13T05:26:57;20.80;90.30
45785;DHT22;31489;51.404;5.474;2023-10-13T05:29:42;20.80;90.40
45785;DHT22;31489;51.404;5.474;2023-10-13T05:32:27;20.80;90.40
45785;DHT22;31489;51.404;5.474;2023-10-13T05:35:12;20.80;90.40
45785;DHT22;31489;51.404;5.474;2023-10-13T05:37:56;20.80;90.40
45785;DHT22;31489;51.404;5.474;2023-10-13T05:40:55;20.90;90.40
45785;DHT22;31489;51.404;5.474;2023-10-13T05:43:40;20.80;90.60
45785;DHT22;31489;51.404;5.474;2023-10-13T05:46:24;20.90;90.40
45785;DHT22;31489;51.404;5.474;2023-10-13T05:48:53;20.90;90.50
45785;DHT22;31489;51.404;5.474;2023-10-13T05:51:26;20.80;90.40
45785;DHT22;31489;51.404;5.474;2023-10-13T05:54:02;20.90;90.50
45785;DHT22;31489;51.404;5.474;2023-10-13T05:56:44;20.90;90.50
45785;DHT22;31489;51.404;5.474;2023-10-13T05:59:29;20.90;90.50
45785;DHT22;31489;51.404;5.474;2023-10-13T06:02:19;20.90;90.50
45785;DHT22;31489;51.404;5.474;2023-10-13T06:07:51;20.90;90.50
45785;DHT22;31489;51.404;5.474;2023-10-13T06:10:37;20.80;90.40
45785;DHT22;31489;51.404;5.474;2023-10-13T06:13:21;20.80;90.40
45785;DHT22;31489;51.404;5.474;2023-10-13T06:16:11;20.90;90.40
45785;DHT22;31489;51.404;5.474;2023-10-13T06:18:58;20.80;90.50
45785;DHT22;31489;51.404;5.474;2023-10-13T06:21:43;20.80;90.40
45785;DHT22;31489;51.404;5.474;2023-10-13T06:24:27;20.80;90.40
45785;DHT22;31489;51.404;5.474;2023-10-13T06:27:11;20.90;90.40
45785;DHT22;31489;51.404;5.474;2023-10-13T06:29:55;20.80;90.40
45785;DHT22;31489;51.404;5.474;2023-10-13T06:32:22;20.80;90.50
45785;DHT22;31489;51.404;5.474;2023-10-13T06:34:54;20.90;90.50
45785;DHT22;31489;51.404;5.474;2023-10-13T06:37:44;20.90;90.50
45785;DHT22;31489;51.404;5.474;2023-10-13T06:40:11;20.90;90.50
45785;DHT22;31489;51.404;5.474;2023-10-13T06:42:56;20.90;90.60
45785;DHT22;31489;51.404;5.474;2023-10-13T06:45:37;20.90;90.60
45785;DHT22;31489;51.404;5.474;2023-10-13T06:48:04;20.90;90.60
45785;DHT22;31489;51.404;5.474;2023-10-13T06:50:30;20.90;90.60
45785;DHT22;31489;51.404;5.474;2023-10-13T06:53:04;21.00;90.60
45785;DHT22;31489;51.404;5.474;2023-10-13T06:55:30;21.00;90.70
45785;DHT22;31489;51.404;5.474;2023-10-13T06:58:01;21.00;90.70
45785;DHT22;31489;51.404;5.474;2023-10-13T07:00:27;21.00;90.70
45785;DHT22;31489;51.404;5.474;2023-10-13T07:02:56;21.00;90.60
45785;DHT22;31489;51.404;5.474;2023-10-13T07:05:51;21.10;90.70
45785;DHT22;31489;51.404;5.474;2023-10-13T07:08:18;21.10;90.60
45785;DHT22;31489;51.404;5.474;2023-10-13T07:10:54;21.10;90.60
45785;DHT22;31489;51.404;5.474;2023-10-13T07:13:39;21.10;90.60
45785;DHT22;31489;51.404;5.474;2023-10-13T07:16:07;21.10;90.60
45785;DHT22;31489;51.404;5.474;2023-10-13T07:18:38;21.20;90.60
45785;DHT22;31489;51.404;5.474;2023-10-13T07:21:15;21.20;90.60
45785;DHT22;31489;51.404;5.474;2023-10-13T07:23:41;21.10;90.50
45785;DHT22;31489;51.404;5.474;2023-10-13T07:26:15;21.20;90.60
45785;DHT22;31489;51.404;5.474;2023-10-13T07:28:40;21.20;90.60
45785;DHT22;31489;51.404;5.474;2023-10-13T07:31:18;21.20;90.60
45785;DHT22;31489;51.404;5.474;2023-10-13T07:33:46;21.20;90.80
45785;DHT22;31489;51.404;5.474;2023-10-13T07:36:12;21.30;90.70
45785;DHT22;31489;51.404;5.474;2023-10-13T07:38:47;21.30;90.60
45785;DHT22;31489;51.404;5.474;2023-10-13T07:41:25;21.30;90.70
45785;DHT22;31489;51.404;5.474;2023-10-13T07:43:56;21.40;90.60
45785;DHT22;31489;51.404;5.474;2023-10-13T07:46:23;21.30;90.60
45785;DHT22;31489;51.404;5.474;2023-10-13T07:48:56;21.40;90.50
45785;DHT22;31489;51.404;5.474;2023-10-13T07:51:35;21.40;90.50
45785;DHT22;31489;51.404;5.474;2023-10-13T07:54:12;21.40;90.50
45785;DHT22;31489;51.404;5.474;2023-10-13T07:56:40;21.50;90.50
45785;DHT22;31489;51.404;5.474;2023-10-13T07:59:06;21.50;90.50
45785;DHT22;31489;51.404;5.474;2023-10-13T08:01:34;21.50;90.50
45785;DHT22;31489;51.404;5.474;2023-10-13T08:04:00;21.60;90.40
45785;DHT22;31489;51.404;5.474;2023-10-13T08:06:41;21.60;90.30
45785;DHT22;31489;51.404;5.474;2023-10-13T08:09:08;21.60;90.10
45785;DHT22;31489;51.404;5.474;2023-10-13T08:11:35;21.70;90.00
45785;DHT22;31489;51.404;5.474;2023-10-13T08:14:03;21.70;89.80
45785;DHT22;31489;51.404;5.474;2023-10-13T08:16:42;21.80;89.60
45785;DHT22;31489;51.404;5.474;2023-10-13T08:19:18;21.70;89.60
45785;DHT22;31489;51.404;5.474;2023-10-13T08:21:45;21.80;88.90
45785;DHT22;31489;51.404;5.474;2023-10-13T08:24:17;21.80;89.10
45785;DHT22;31489;51.404;5.474;2023-10-13T08:27:02;21.80;88.90
45785;DHT22;31489;51.404;5.474;2023-10-13T08:29:44;21.80;88.90
45785;DHT22;31489;51.404;5.474;2023-10-13T08:32:26;21.90;89.00
45785;DHT22;31489;51.404;5.474;2023-10-13T08:34:52;21.90;88.30
45785;DHT22;31489;51.404;5.474;2023-10-13T08:37:18;21.90;88.20
45785;DHT22;31489;51.404;5.474;2023-10-13T08:39:47;21.90;88.40
45785;DHT22;31489;51.404;5.474;2023-10-13T08:42:32;22.00;88.40
45785;DHT22;31489;51.404;5.474;2023-10-13T08:45:14;22.00;87.80
45785;DHT22;31489;51.404;5.474;2023-10-13T08:47:56;22.00;87.50
45785;DHT22;31489;51.404;5.474;2023-10-13T08:50:39;22.10;87.50
45785;DHT22;31489;51.404;5.474;2023-10-13T08:53:20;22.20;87.70
45785;DHT22;31489;51.404;5.474;2023-10-13T08:58:30;22.20;86.80
45785;DHT22;31489;51.404;5.474;2023-10-13T09:01:14;22.20;87.10
45785;DHT22;31489;51.404;5.474;2023-10-13T09:04:01;22.30;86.80
45785;DHT22;31489;51.404;5.474;2023-10-13T09:06:50;22.30;86.30
45785;DHT22;31489;51.404;5.474;2023-10-13T09:09:26;22.30;86.10
45785;DHT22;31489;51.404;5.474;2023-10-13T09:11:55;22.30;85.50
45785;DHT22;31489;51.404;5.474;2023-10-13T09:14:34;22.40;85.60
45785;DHT22;31489;51.404;5.474;2023-10-13T09:17:04;22.40;85.40
45785;DHT22;31489;51.404;5.474;2023-10-13T09:20:00;22.40;85.20
45785;DHT22;31489;51.404;5.474;2023-10-13T09:22:45;22.40;85.00
45785;DHT22;31489;51.404;5.474;2023-10-13T09:25:22;22.50;84.50
45785;DHT22;31489;51.404;5.474;2023-10-13T09:27:49;22.50;84.20
45785;DHT22;31489;51.404;5.474;2023-10-13T09:30:19;22.50;83.70
45785;DHT22;31489;51.404;5.474;2023-10-13T09:33:07;22.50;83.70
45785;DHT22;31489;51.404;5.474;2023-10-13T09:35:34;22.50;83.80
45785;DHT22;31489;51.404;5.474;2023-10-13T09:38:03;22.60;83.80
45785;DHT22;31489;51.404;5.474;2023-10-13T09:40:29;22.60;83.70
45785;DHT22;31489;51.404;5.474;2023-10-13T09:43:01;22.60;83.80
45785;DHT22;31489;51.404;5.474;2023-10-13T09:45:32;22.60;83.20
45785;DHT22;31489;51.404;5.474;2023-10-13T09:48:18;22.70;83.50
45785;DHT22;31489;51.404;5.474;2023-10-13T09:50:48;22.80;83.50
45785;DHT22;31489;51.404;5.474;2023-10-13T09:53:17;22.90;83.40
45785;DHT22;31489;51.404;5.474;2023-10-13T09:56:16;23.00;82.70
45785;DHT22;31489;51.404;5.474;2023-10-13T09:59:02;23.00;82.60
45785;DHT22;31489;51.404;5.474;2023-10-13T10:01:40;23.10;81.80
45785;DHT22;31489;51.404;5.474;2023-10-13T10:04:16;23.20;82.30
45785;DHT22;31489;51.404;5.474;2023-10-13T10:06:57;23.30;81.80
45785;DHT22;31489;51.404;5.474;2023-10-13T10:09:32;23.30;80.80
45785;DHT22;31489;51.404;5.474;2023-10-13T10:17:41;23.50;80.50
45785;DHT22;31489;51.404;5.474;2023-10-13T10:20:08;23.50;80.40
45785;DHT22;31489;51.404;5.474;2023-10-13T10:22:59;23.50;80.00
45785;DHT22;31489;51.404;5.474;2023-10-13T10:25:30;23.60;79.60
45785;DHT22;31489;51.404;5.474;2023-10-13T10:28:04;23.60;79.30
45785;DHT22;31489;51.404;5.474;2023-10-13T10:30:32;23.70;80.00
45785;DHT22;31489;51.404;5.474;2023-10-13T10:33:00;23.70;79.90
45785;DHT22;31489;51.404;5.474;2023-10-13T10:35:27;23.70;79.90
45785;DHT22;31489;51.404;5.474;2023-10-13T10:38:10;23.70;79.40
45785;DHT22;31489;51.404;5.474;2023-10-13T10:40:57;23.80;77.70
45785;DHT22;31489;51.404;5.474;2023-10-13T10:43:25;23.80;79.60
45785;DHT22;31489;51.404;5.474;2023-10-13T10:45:52;23.90;78.70
45785;DHT22;31489;51.404;5.474;2023-10-13T10:48:25;23.90;79.00
45785;DHT22;31489;51.404;5.474;2023-10-13T10:50:57;23.90;79.00
45785;DHT22;31489;51.404;5.474;2023-10-13T10:53:25;23.90;78.30
45785;DHT22;31489;51.404;5.474;2023-10-13T10:56:07;23.90;78.10
45785;DHT22;31489;51.404;5.474;2023-10-13T10:58:45;23.90;77.70
45785;DHT22;31489;51.404;5.474;2023-10-13T11:01:11;23.90;78.10
45785;DHT22;31489;51.404;5.474;2023-10-13T11:03:56;23.90;77.80
45785;DHT22;31489;51.404;5.474;2023-10-13T11:06:28;23.90;76.50
45785;DHT22;31489;51.404;5.474;2023-10-13T11:09:06;23.90;77.00
45785;DHT22;31489;51.404;5.474;2023-10-13T11:11:45;24.00;77.10
45785;DHT22;31489;51.404;5.474;2023-10-13T11:14:20;24.00;77.10
45785;DHT22;31489;51.404;5.474;2023-10-13T11:16:49;24.00;77.10
45785;DHT22;31489;51.404;5.474;2023-10-13T11:19:40;24.10;77.70
45785;DHT22;31489;51.404;5.474;2023-10-13T11:22:19;24.30;76.10
45785;DHT22;31489;51.404;5.474;2023-10-13T11:25:03;24.40;76.40
45785;DHT22;31489;51.404;5.474;2023-10-13T11:27:35;24.60;75.40
45785;DHT22;31489;51.404;5.474;2023-10-13T11:30:19;24.70;75.80
45785;DHT22;31489;51.404;5.474;2023-10-13T11:32:59;24.80;74.70
45785;DHT22;31489;51.404;5.474;2023-10-13T11:35:25;24.90;74.80
45785;DHT22;31489;51.404;5.474;2023-10-13T11:37:54;25.10;75.70
45785;DHT22;31489;51.404;5.474;2023-10-13T11:40:37;25.30;76.00
45785;DHT22;31489;51.404;5.474;2023-10-13T11:43:12;25.50;75.10
45785;DHT22;31489;51.404;5.474;2023-10-13T11:45:47;25.60;73.10
45785;DHT22;31489;51.404;5.474;2023-10-13T11:48:39;25.70;73.30
45785;DHT22;31489;51.404;5.474;2023-10-13T11:51:06;25.70;73.10
45785;DHT22;31489;51.404;5.474;2023-10-13T11:53:35;25.80;72.20
45785;DHT22;31489;51.404;5.474;2023-10-13T11:56:04;25.70;72.30
45785;DHT22;31489;51.404;5.474;2023-10-13T11:58:38;25.70;71.20
45785;DHT22;31489;51.404;5.474;2023-10-13T12:01:05;25.70;71.60
45785;DHT22;31489;51.404;5.474;2023-10-13T12:03:33;25.70;71.20
45785;DHT22;31489;51.404;5.474;2023-10-13T12:06:18;25.70;71.60
45785;DHT22;31489;51.404;5.474;2023-10-13T12:08:59;25.60;71.40
45785;DHT22;31489;51.404;5.474;2023-10-13T12:11:39;25.70;71.60
45785;DHT22;31489;51.404;5.474;2023-10-13T12:14:10;25.70;71.20
45785;DHT22;31489;51.404;5.474;2023-10-13T12:16:49;25.80;71.30
45785;DHT22;31489;51.404;5.474;2023-10-13T12:19:17;25.90;71.00
45785;DHT22;31489;51.404;5.474;2023-10-13T12:21:45;26.10;71.90
45785;DHT22;31489;51.404;5.474;2023-10-13T12:24:13;26.20;70.50
45785;DHT22;31489;51.404;5.474;2023-10-13T12:26:49;26.40;71.30
45785;DHT22;31489;51.404;5.474;2023-10-13T12:29:22;26.70;70.40
45785;DHT22;31489;51.404;5.474;2023-10-13T12:31:48;26.90;70.60
45785;DHT22;31489;51.404;5.474;2023-10-13T12:34:30;27.00;69.90
45785;DHT22;31489;51.404;5.474;2023-10-13T12:37:15;27.20;69.00
45785;DHT22;31489;51.404;5.474;2023-10-13T12:40:05;27.20;68.30
45785;DHT22;31489;51.404;5.474;2023-10-13T12:42:49;27.20;68.90
45785;DHT22;31489;51.404;5.474;2023-10-13T12:45:33;27.30;67.50
45785;DHT22;31489;51.404;5.474;2023-10-13T12:48:22;27.20;67.00
45785;DHT22;31489;51.404;5.474;2023-10-13T12:51:06;27.20;67.10
45785;DHT22;31489;51.404;5.474;2023-10-13T12:54:06;27.00;66.80
45785;DHT22;31489;51.404;5.474;2023-10-13T12:56:45;27.00;66.50
45785;DHT22;31489;51.404;5.474;2023-10-13T12:59:11;26.80;66.50
45785;DHT22;31489;51.404;5.474;2023-10-13T13:01:39;26.70;66.40
45785;DHT22;31489;51.404;5.474;2023-10-13T13:04:11;26.60;66.10
45785;DHT22;31489;51.404;5.474;2023-10-13T13:06:47;26.60;66.00
45785;DHT22;31489;51.404;5.474;2023-10-13T13:09:12;26.50;65.80
45785;DHT22;31489;51.404;5.474;2023-10-13T13:11:38;26.40;66.40
45785;DHT22;31489;51.404;5.474;2023-10-13T13:14:07;26.30;65.60
45785;DHT22;31489;51.404;5.474;2023-10-13T13:16:34;26.30;66.10
45785;DHT22;31489;51.404;5.474;2023-10-13T13:19:00;26.20;66.10
45785;DHT22;31489;51.404;5.474;2023-10-13T13:21:29;26.20;66.50
45785;DHT22;31489;51.404;5.474;2023-10-13T13:23:55;26.20;65.90
45785;DHT22;31489;51.404;5.474;2023-10-13T13:26:21;26.20;65.90
45785;DHT22;31489;51.404;5.474;2023-10-13T13:28:48;26.20;65.70
45785;DHT22;31489;51.404;5.474;2023-10-13T13:31:20;26.20;65.50
45785;DHT22;31489;51.404;5.474;2023-10-13T13:33:55;26.20;65.30
45785;DHT22;31489;51.404;5.474;2023-10-13T13:36:21;26.20;66.00
45785;DHT22;31489;51.404;5.474;2023-10-13T13:38:48;26.20;65.80
45785;DHT22;31489;51.404;5.474;2023-10-13T13:41:20;26.20;65.60
45785;DHT22;31489;51.404;5.474;2023-10-13T13:43:47;26.20;65.40
45785;DHT22;31489;51.404;5.474;2023-10-13T13:46:21;26.20;65.30
45785;DHT22;31489;51.404;5.474;2023-10-13T13:48:53;26.20;65.60
45785;DHT22;31489;51.404;5.474;2023-10-13T13:51:32;26.20;65.40
45785;DHT22;31489;51.404;5.474;2023-10-13T13:53:59;26.20;65.30
45785;DHT22;31489;51.404;5.474;2023-10-13T13:56:25;26.20;65.00
45785;DHT22;31489;51.404;5.474;2023-10-13T13:58:54;26.20;64.90
45785;DHT22;31489;51.404;5.474;2023-10-13T14:01:21;26.20;64.70
45785;DHT22;31489;51.404;5.474;2023-10-13T14:03:50;26.20;65.10
45785;DHT22;31489;51.404;5.474;2023-10-13T14:06:18;26.20;64.60
45785;DHT22;31489;51.404;5.474;2023-10-13T14:08:47;26.10;65.00
45785;DHT22;31489;51.404;5.474;2023-10-13T14:11:17;26.10;64.80
45785;DHT22;31489;51.404;5.474;2023-10-13T14:16:43;26.10;65.00
45785;DHT22;31489;51.404;5.474;2023-10-13T14:19:15;26.00;64.40
45785;DHT22;31489;51.404;5.474;2023-10-13T14:21:57;26.00;65.80
45785;DHT22;31489;51.404;5.474;2023-10-13T14:24:24;26.00;65.10
45785;DHT22;31489;51.404;5.474;2023-10-13T14:27:00;26.00;65.20
45785;DHT22;31489;51.404;5.474;2023-10-13T14:29:34;26.00;65.20
45785;DHT22;31489;51.404;5.474;2023-10-13T14:32:08;26.10;66.30
45785;DHT22;31489;51.404;5.474;2023-10-13T14:34:41;26.00;65.90
45785;DHT22;31489;51.404;5.474;2023-10-13T14:37:08;26.10;65.10
45785;DHT22;31489;51.404;5.474;2023-10-13T14:39:34;26.10;65.30
45785;DHT22;31489;51.404;5.474;2023-10-13T14:42:04;26.10;65.40
45785;DHT22;31489;51.404;5.474;2023-10-13T14:44:32;26.10;64.90
45785;DHT22;31489;51.404;5.474;2023-10-13T14:46:57;26.10;65.10
45785;DHT22;31489;51.404;5.474;2023-10-13T14:49:23;26.10;65.10
45785;DHT22;31489;51.404;5.474;2023-10-13T14:51:49;26.10;65.30
45785;DHT22;31489;51.404;5.474;2023-10-13T14:54:15;26.10;64.90
45785;DHT22;31489;51.404;5.474;2023-10-13T14:56:42;26.10;64.90
45785;DHT22;31489;51.404;5.474;2023-10-13T14:59:08;26.10;64.90
45785;DHT22;31489;51.404;5.474;2023-10-13T15:01:42;26.10;64.80
45785;DHT22;31489;51.404;5.474;2023-10-13T15:04:07;26.10;64.30
45785;DHT22;31489;51.404;5.474;2023-10-13T15:06:33;26.10;64.60
45785;DHT22;31489;51.404;5.474;2023-10-13T15:09:00;26.10;64.60
45785;DHT22;31489;51.404;5.474;2023-10-13T15:11:27;26.00;64.40
45785;DHT22;31489;51.404;5.474;2023-10-13T15:14:04;26.00;63.90
45785;DHT22;31489;51.404;5.474;2023-10-13T15:16:32;26.00;64.20
45785;DHT22;31489;51.404;5.474;2023-10-13T15:18:59;25.90;64.40
45785;DHT22;31489;51.404;5.474;2023-10-13T15:21:29;25.90;64.10
45785;DHT22;31489;51.404;5.474;2023-10-13T15:24:02;25.80;63.40
45785;DHT22;31489;51.404;5.474;2023-10-13T15:26:43;25.80;63.80
45785;DHT22;31489;51.404;5.474;2023-10-13T15:29:13;25.70;64.30
45785;DHT22;31489;51.404;5.474;2023-10-13T15:31:42;25.70;64.70
45785;DHT22;31489;51.404;5.474;2023-10-13T15:34:19;25.60;65.00
45785;DHT22;31489;51.404;5.474;2023-10-13T15:36:45;25.60;65.10
45785;DHT22;31489;51.404;5.474;2023-10-13T15:39:12;25.50;65.30
45785;DHT22;31489;51.404;5.474;2023-10-13T15:41:41;25.40;65.00
45785;DHT22;31489;51.404;5.474;2023-10-13T15:44:11;25.30;65.80
45785;DHT22;31489;51.404;5.474;2023-10-13T15:46:38;25.20;65.70
45785;DHT22;31489;51.404;5.474;2023-10-13T15:49:04;25.20;65.70
45785;DHT22;31489;51.404;5.474;2023-10-13T15:51:35;25.10;65.70
45785;DHT22;31489;51.404;5.474;2023-10-13T15:54:04;25.10;65.90
45785;DHT22;31489;51.404;5.474;2023-10-13T15:56:32;25.00;65.80
45785;DHT22;31489;51.404;5.474;2023-10-13T15:58:59;25.00;66.20
45785;DHT22;31489;51.404;5.474;2023-10-13T16:01:27;25.00;66.40
45785;DHT22;31489;51.404;5.474;2023-10-13T16:03:53;24.90;66.20
45785;DHT22;31489;51.404;5.474;2023-10-13T16:06:19;24.90;66.50
45785;DHT22;31489;51.404;5.474;2023-10-13T16:08:51;24.90;67.20
45785;DHT22;31489;51.404;5.474;2023-10-13T16:11:17;24.80;67.30
45785;DHT22;31489;51.404;5.474;2023-10-13T16:13:49;24.80;67.40
45785;DHT22;31489;51.404;5.474;2023-10-13T16:16:18;24.70;67.30
45785;DHT22;31489;51.404;5.474;2023-10-13T16:18:45;24.70;67.80
45785;DHT22;31489;51.404;5.474;2023-10-13T16:21:12;24.70;67.80
45785;DHT22;31489;51.404;5.474;2023-10-13T16:23:43;24.60;67.70
45785;DHT22;31489;51.404;5.474;2023-10-13T16:26:19;24.50;67.80
45785;DHT22;31489;51.404;5.474;2023-10-13T16:28:51;24.40;67.80